Satellite Precipitation Estimates (TXUS20 KWBC)
Issued by NWS

Home | Current Version | Previous Version | Text Only | Print | Product List | Glossary On
Versions: 1 2
000
SPTD31 TTPP 172042
SPECI
TTCP 172036Z 06010KT 4000 -SHRA SCT015 32/25 Q1010 NOSIG RMK SHWRS
NE- S=



USA.gov is the U.S. government's official web portal to all federal, state and local government web resources and services.